sensor_id;sensor_type;location;lat;lon;timestamp;P1;durP1;ratioP1;P2;durP2;ratioP2
24034;SDS011;12242;50.952;4.678;2022-12-18T00:00:01;54.00;;;18.63;;
24034;SDS011;12242;50.952;4.678;2022-12-18T00:02:34;52.03;;;20.40;;
24034;SDS011;12242;50.952;4.678;2022-12-18T00:05:01;46.05;;;18.85;;
24034;SDS011;12242;50.952;4.678;2022-12-18T00:07:28;47.58;;;18.05;;
24034;SDS011;12242;50.952;4.678;2022-12-18T00:09:56;49.85;;;19.25;;
24034;SDS011;12242;50.952;4.678;2022-12-18T00:12:23;47.15;;;17.90;;
24034;SDS011;12242;50.952;4.678;2022-12-18T00:14:50;48.85;;;17.67;;
24034;SDS011;12242;50.952;4.678;2022-12-18T00:17:20;43.90;;;17.75;;
24034;SDS011;12242;50.952;4.678;2022-12-18T00:19:47;45.53;;;18.83;;
24034;SDS011;12242;50.952;4.678;2022-12-18T00:22:14;40.53;;;17.30;;
24034;SDS011;12242;50.952;4.678;2022-12-18T00:24:41;47.80;;;18.10;;
24034;SDS011;12242;50.952;4.678;2022-12-18T00:27:09;46.85;;;18.13;;
24034;SDS011;12242;50.952;4.678;2022-12-18T00:29:36;48.22;;;18.02;;
24034;SDS011;12242;50.952;4.678;2022-12-18T00:32:03;39.92;;;16.52;;
24034;SDS011;12242;50.952;4.678;2022-12-18T00:34:31;45.63;;;17.67;;
24034;SDS011;12242;50.952;4.678;2022-12-18T00:37:00;37.15;;;16.30;;
24034;SDS011;12242;50.952;4.678;2022-12-18T00:39:27;47.63;;;17.58;;
24034;SDS011;12242;50.952;4.678;2022-12-18T00:41:55;41.20;;;18.25;;
24034;SDS011;12242;50.952;4.678;2022-12-18T00:44:40;45.40;;;18.05;;
24034;SDS011;12242;50.952;4.678;2022-12-18T00:47:08;46.42;;;17.90;;
24034;SDS011;12242;50.952;4.678;2022-12-18T00:49:35;48.22;;;18.00;;
24034;SDS011;12242;50.952;4.678;2022-12-18T00:52:05;43.75;;;16.88;;
24034;SDS011;12242;50.952;4.678;2022-12-18T00:54:32;44.10;;;17.95;;
24034;SDS011;12242;50.952;4.678;2022-12-18T00:57:02;47.80;;;17.73;;
24034;SDS011;12242;50.952;4.678;2022-12-18T00:59:29;40.78;;;17.90;;
24034;SDS011;12242;50.952;4.678;2022-12-18T01:01:57;42.95;;;16.63;;
24034;SDS011;12242;50.952;4.678;2022-12-18T01:04:24;47.88;;;17.48;;
24034;SDS011;12242;50.952;4.678;2022-12-18T01:06:51;43.30;;;15.93;;
24034;SDS011;12242;50.952;4.678;2022-12-18T01:09:19;45.25;;;17.05;;
24034;SDS011;12242;50.952;4.678;2022-12-18T01:11:46;44.85;;;18.23;;
24034;SDS011;12242;50.952;4.678;2022-12-18T01:14:18;46.08;;;17.88;;
24034;SDS011;12242;50.952;4.678;2022-12-18T01:16:50;46.05;;;16.60;;
24034;SDS011;12242;50.952;4.678;2022-12-18T01:19:19;44.67;;;16.17;;
24034;SDS011;12242;50.952;4.678;2022-12-18T01:21:52;42.90;;;16.15;;
24034;SDS011;12242;50.952;4.678;2022-12-18T01:24:22;42.03;;;16.42;;
24034;SDS011;12242;50.952;4.678;2022-12-18T01:26:49;38.83;;;16.08;;
24034;SDS011;12242;50.952;4.678;2022-12-18T01:29:16;47.25;;;17.30;;
24034;SDS011;12242;50.952;4.678;2022-12-18T01:31:43;40.80;;;16.58;;
24034;SDS011;12242;50.952;4.678;2022-12-18T01:34:13;41.70;;;16.60;;
24034;SDS011;12242;50.952;4.678;2022-12-18T01:36:41;41.63;;;16.02;;
24034;SDS011;12242;50.952;4.678;2022-12-18T01:39:12;42.67;;;16.70;;
24034;SDS011;12242;50.952;4.678;2022-12-18T01:41:40;39.30;;;16.20;;
24034;SDS011;12242;50.952;4.678;2022-12-18T01:47:47;43.20;;;16.48;;
24034;SDS011;12242;50.952;4.678;2022-12-18T01:50:36;48.20;;;17.45;;
24034;SDS011;12242;50.952;4.678;2022-12-18T01:53:10;42.72;;;16.65;;
24034;SDS011;12242;50.952;4.678;2022-12-18T01:55:48;47.13;;;16.35;;
24034;SDS011;12242;50.952;4.678;2022-12-18T01:58:27;40.47;;;15.18;;
24034;SDS011;12242;50.952;4.678;2022-12-18T02:00:57;43.85;;;15.93;;
24034;SDS011;12242;50.952;4.678;2022-12-18T02:03:24;39.08;;;15.90;;
24034;SDS011;12242;50.952;4.678;2022-12-18T02:08:30;27.35;;;11.90;;
24034;SDS011;12242;50.952;4.678;2022-12-18T02:14:02;38.72;;;15.07;;
24034;SDS011;12242;50.952;4.678;2022-12-18T02:22:24;37.22;;;15.65;;
24034;SDS011;12242;50.952;4.678;2022-12-18T02:25:23;36.30;;;15.38;;
24034;SDS011;12242;50.952;4.678;2022-12-18T02:28:12;38.95;;;15.18;;
24034;SDS011;12242;50.952;4.678;2022-12-18T02:30:42;40.20;;;15.90;;
24034;SDS011;12242;50.952;4.678;2022-12-18T02:33:13;45.53;;;15.82;;
24034;SDS011;12242;50.952;4.678;2022-12-18T02:35:45;39.47;;;15.80;;
24034;SDS011;12242;50.952;4.678;2022-12-18T02:38:14;40.33;;;16.10;;
24034;SDS011;12242;50.952;4.678;2022-12-18T02:40:43;38.08;;;15.88;;
24034;SDS011;12242;50.952;4.678;2022-12-18T02:43:13;36.10;;;14.82;;
24034;SDS011;12242;50.952;4.678;2022-12-18T02:45:50;36.83;;;14.45;;
24034;SDS011;12242;50.952;4.678;2022-12-18T02:48:23;40.22;;;14.55;;
24034;SDS011;12242;50.952;4.678;2022-12-18T02:53:57;38.13;;;14.95;;
24034;SDS011;12242;50.952;4.678;2022-12-18T02:56:53;41.80;;;16.23;;
24034;SDS011;12242;50.952;4.678;2022-12-18T02:59:28;39.47;;;16.17;;
24034;SDS011;12242;50.952;4.678;2022-12-18T03:04:49;40.70;;;17.40;;
24034;SDS011;12242;50.952;4.678;2022-12-18T03:07:38;40.50;;;16.48;;
24034;SDS011;12242;50.952;4.678;2022-12-18T03:10:09;43.08;;;16.10;;
24034;SDS011;12242;50.952;4.678;2022-12-18T03:12:45;39.35;;;15.30;;
24034;SDS011;12242;50.952;4.678;2022-12-18T03:15:21;37.22;;;15.73;;
24034;SDS011;12242;50.952;4.678;2022-12-18T03:17:56;46.03;;;17.95;;
24034;SDS011;12242;50.952;4.678;2022-12-18T03:20:29;44.33;;;16.52;;
24034;SDS011;12242;50.952;4.678;2022-12-18T03:23:00;42.97;;;17.67;;
24034;SDS011;12242;50.952;4.678;2022-12-18T03:25:34;48.83;;;17.73;;
24034;SDS011;12242;50.952;4.678;2022-12-18T03:28:07;44.63;;;18.02;;
24034;SDS011;12242;50.952;4.678;2022-12-18T03:30:41;43.05;;;16.98;;
24034;SDS011;12242;50.952;4.678;2022-12-18T03:33:24;41.55;;;15.85;;
24034;SDS011;12242;50.952;4.678;2022-12-18T03:36:10;39.90;;;16.02;;
24034;SDS011;12242;50.952;4.678;2022-12-18T03:38:38;44.70;;;16.70;;
24034;SDS011;12242;50.952;4.678;2022-12-18T03:41:07;45.03;;;15.80;;
24034;SDS011;12242;50.952;4.678;2022-12-18T03:43:54;40.53;;;16.55;;
24034;SDS011;12242;50.952;4.678;2022-12-18T03:46:54;42.38;;;16.48;;
24034;SDS011;12242;50.952;4.678;2022-12-18T03:52:27;40.33;;;15.70;;
24034;SDS011;12242;50.952;4.678;2022-12-18T03:55:07;42.92;;;16.95;;
24034;SDS011;12242;50.952;4.678;2022-12-18T03:57:36;44.00;;;16.50;;
24034;SDS011;12242;50.952;4.678;2022-12-18T04:00:08;42.55;;;16.25;;
24034;SDS011;12242;50.952;4.678;2022-12-18T04:02:39;41.35;;;16.33;;
24034;SDS011;12242;50.952;4.678;2022-12-18T04:05:14;45.50;;;17.40;;
24034;SDS011;12242;50.952;4.678;2022-12-18T04:07:46;48.58;;;16.52;;
24034;SDS011;12242;50.952;4.678;2022-12-18T04:10:18;35.47;;;15.45;;
24034;SDS011;12242;50.952;4.678;2022-12-18T04:12:47;43.17;;;17.95;;
24034;SDS011;12242;50.952;4.678;2022-12-18T04:15:15;47.22;;;16.98;;
24034;SDS011;12242;50.952;4.678;2022-12-18T04:17:48;45.58;;;17.10;;
24034;SDS011;12242;50.952;4.678;2022-12-18T04:20:17;43.20;;;16.83;;
24034;SDS011;12242;50.952;4.678;2022-12-18T04:22:44;42.10;;;16.48;;
24034;SDS011;12242;50.952;4.678;2022-12-18T04:25:12;43.45;;;16.05;;
24034;SDS011;12242;50.952;4.678;2022-12-18T04:27:44;45.23;;;17.13;;
24034;SDS011;12242;50.952;4.678;2022-12-18T04:30:11;42.50;;;16.73;;
24034;SDS011;12242;50.952;4.678;2022-12-18T04:32:40;40.28;;;15.63;;
24034;SDS011;12242;50.952;4.678;2022-12-18T04:35:15;41.92;;;17.10;;
24034;SDS011;12242;50.952;4.678;2022-12-18T04:37:43;42.55;;;17.13;;
24034;SDS011;12242;50.952;4.678;2022-12-18T04:40:10;41.08;;;17.02;;
24034;SDS011;12242;50.952;4.678;2022-12-18T04:42:39;42.78;;;16.73;;
24034;SDS011;12242;50.952;4.678;2022-12-18T04:45:09;39.47;;;15.50;;
24034;SDS011;12242;50.952;4.678;2022-12-18T04:47:36;39.38;;;15.80;;
24034;SDS011;12242;50.952;4.678;2022-12-18T04:50:04;39.53;;;16.63;;
24034;SDS011;12242;50.952;4.678;2022-12-18T04:52:32;38.60;;;15.35;;
24034;SDS011;12242;50.952;4.678;2022-12-18T04:54:59;45.03;;;16.15;;
24034;SDS011;12242;50.952;4.678;2022-12-18T04:57:32;40.42;;;15.50;;
24034;SDS011;12242;50.952;4.678;2022-12-18T05:00:02;43.58;;;17.13;;
24034;SDS011;12242;50.952;4.678;2022-12-18T05:02:29;40.22;;;15.65;;
24034;SDS011;12242;50.952;4.678;2022-12-18T05:04:57;40.17;;;15.73;;
24034;SDS011;12242;50.952;4.678;2022-12-18T05:07:24;40.97;;;15.65;;
24034;SDS011;12242;50.952;4.678;2022-12-18T05:09:51;47.85;;;16.85;;
24034;SDS011;12242;50.952;4.678;2022-12-18T05:12:19;45.17;;;15.38;;
24034;SDS011;12242;50.952;4.678;2022-12-18T05:14:46;39.58;;;16.17;;
24034;SDS011;12242;50.952;4.678;2022-12-18T05:17:15;38.28;;;14.00;;
24034;SDS011;12242;50.952;4.678;2022-12-18T05:19:43;46.05;;;16.13;;
24034;SDS011;12242;50.952;4.678;2022-12-18T05:22:10;36.65;;;15.10;;
24034;SDS011;12242;50.952;4.678;2022-12-18T05:24:38;36.72;;;14.95;;
24034;SDS011;12242;50.952;4.678;2022-12-18T05:27:05;40.75;;;15.90;;
24034;SDS011;12242;50.952;4.678;2022-12-18T05:29:32;40.55;;;15.98;;
24034;SDS011;12242;50.952;4.678;2022-12-18T05:32:00;37.50;;;14.73;;
24034;SDS011;12242;50.952;4.678;2022-12-18T05:34:27;38.38;;;14.90;;
24034;SDS011;12242;50.952;4.678;2022-12-18T05:36:54;37.65;;;14.80;;
24034;SDS011;12242;50.952;4.678;2022-12-18T05:39:21;38.83;;;15.82;;
24034;SDS011;12242;50.952;4.678;2022-12-18T05:41:49;40.45;;;15.23;;
24034;SDS011;12242;50.952;4.678;2022-12-18T05:44:18;31.80;;;14.25;;
24034;SDS011;12242;50.952;4.678;2022-12-18T05:46:48;36.40;;;14.05;;
24034;SDS011;12242;50.952;4.678;2022-12-18T05:49:16;40.72;;;15.00;;
24034;SDS011;12242;50.952;4.678;2022-12-18T05:51:45;41.67;;;15.73;;
24034;SDS011;12242;50.952;4.678;2022-12-18T05:54:15;37.97;;;14.75;;
24034;SDS011;12242;50.952;4.678;2022-12-18T05:56:42;42.65;;;15.57;;
24034;SDS011;12242;50.952;4.678;2022-12-18T05:59:14;42.60;;;15.45;;
24034;SDS011;12242;50.952;4.678;2022-12-18T06:01:41;37.22;;;14.40;;
24034;SDS011;12242;50.952;4.678;2022-12-18T06:04:11;37.60;;;14.48;;
24034;SDS011;12242;50.952;4.678;2022-12-18T06:06:39;40.00;;;15.10;;
24034;SDS011;12242;50.952;4.678;2022-12-18T06:09:06;40.42;;;15.45;;
24034;SDS011;12242;50.952;4.678;2022-12-18T06:11:38;39.40;;;15.67;;
24034;SDS011;12242;50.952;4.678;2022-12-18T06:14:06;40.80;;;15.85;;
24034;SDS011;12242;50.952;4.678;2022-12-18T06:16:34;43.45;;;14.88;;
24034;SDS011;12242;50.952;4.678;2022-12-18T06:19:02;40.70;;;15.30;;
24034;SDS011;12242;50.952;4.678;2022-12-18T06:21:33;46.22;;;15.38;;
24034;SDS011;12242;50.952;4.678;2022-12-18T06:24:01;41.70;;;14.95;;
24034;SDS011;12242;50.952;4.678;2022-12-18T06:26:28;42.83;;;15.95;;
24034;SDS011;12242;50.952;4.678;2022-12-18T06:28:57;40.58;;;14.88;;
24034;SDS011;12242;50.952;4.678;2022-12-18T06:31:27;44.47;;;15.18;;
24034;SDS011;12242;50.952;4.678;2022-12-18T06:33:55;37.88;;;15.25;;
24034;SDS011;12242;50.952;4.678;2022-12-18T06:36:28;40.20;;;14.70;;
24034;SDS011;12242;50.952;4.678;2022-12-18T06:38:56;35.20;;;14.48;;
24034;SDS011;12242;50.952;4.678;2022-12-18T06:41:24;41.22;;;15.02;;
24034;SDS011;12242;50.952;4.678;2022-12-18T06:43:51;38.13;;;14.25;;
24034;SDS011;12242;50.952;4.678;2022-12-18T06:46:25;37.03;;;15.05;;
24034;SDS011;12242;50.952;4.678;2022-12-18T06:48:52;40.67;;;14.82;;
24034;SDS011;12242;50.952;4.678;2022-12-18T06:51:20;43.30;;;15.05;;
24034;SDS011;12242;50.952;4.678;2022-12-18T06:53:49;38.20;;;15.35;;
24034;SDS011;12242;50.952;4.678;2022-12-18T06:56:16;34.50;;;13.90;;
24034;SDS011;12242;50.952;4.678;2022-12-18T06:58:44;38.88;;;15.43;;
24034;SDS011;12242;50.952;4.678;2022-12-18T07:01:13;39.20;;;14.05;;
24034;SDS011;12242;50.952;4.678;2022-12-18T07:03:41;43.78;;;15.00;;
24034;SDS011;12242;50.952;4.678;2022-12-18T07:06:19;39.00;;;15.10;;
24034;SDS011;12242;50.952;4.678;2022-12-18T07:08:51;38.00;;;14.13;;
24034;SDS011;12242;50.952;4.678;2022-12-18T07:11:21;36.80;;;14.43;;
24034;SDS011;12242;50.952;4.678;2022-12-18T07:13:48;38.78;;;14.95;;
24034;SDS011;12242;50.952;4.678;2022-12-18T07:16:19;34.38;;;14.85;;
24034;SDS011;12242;50.952;4.678;2022-12-18T07:18:52;35.05;;;13.88;;
24034;SDS011;12242;50.952;4.678;2022-12-18T07:21:25;34.95;;;14.52;;
24034;SDS011;12242;50.952;4.678;2022-12-18T07:23:52;37.85;;;14.50;;
24034;SDS011;12242;50.952;4.678;2022-12-18T07:26:22;34.35;;;13.55;;
24034;SDS011;12242;50.952;4.678;2022-12-18T07:28:54;34.97;;;13.07;;
24034;SDS011;12242;50.952;4.678;2022-12-18T07:31:24;33.22;;;12.90;;
24034;SDS011;12242;50.952;4.678;2022-12-18T07:33:52;31.88;;;13.45;;
24034;SDS011;12242;50.952;4.678;2022-12-18T07:36:22;37.85;;;13.85;;
24034;SDS011;12242;50.952;4.678;2022-12-18T07:38:50;38.78;;;14.63;;
24034;SDS011;12242;50.952;4.678;2022-12-18T07:41:19;35.25;;;13.23;;
24034;SDS011;12242;50.952;4.678;2022-12-18T07:43:47;34.92;;;12.98;;
24034;SDS011;12242;50.952;4.678;2022-12-18T07:46:14;36.65;;;13.70;;
24034;SDS011;12242;50.952;4.678;2022-12-18T07:48:42;30.95;;;13.05;;
24034;SDS011;12242;50.952;4.678;2022-12-18T07:51:14;23.80;;;10.10;;
24034;SDS011;12242;50.952;4.678;2022-12-18T07:53:42;30.27;;;11.93;;
24034;SDS011;12242;50.952;4.678;2022-12-18T07:56:12;31.38;;;12.45;;
24034;SDS011;12242;50.952;4.678;2022-12-18T07:58:59;34.63;;;12.93;;
24034;SDS011;12242;50.952;4.678;2022-12-18T08:01:27;35.40;;;13.43;;
24034;SDS011;12242;50.952;4.678;2022-12-18T08:03:54;28.42;;;11.40;;
24034;SDS011;12242;50.952;4.678;2022-12-18T08:06:26;32.23;;;12.27;;
24034;SDS011;12242;50.952;4.678;2022-12-18T08:08:54;28.08;;;11.18;;
24034;SDS011;12242;50.952;4.678;2022-12-18T08:11:23;25.40;;;10.68;;
24034;SDS011;12242;50.952;4.678;2022-12-18T08:13:52;26.70;;;10.98;;
24034;SDS011;12242;50.952;4.678;2022-12-18T08:16:20;29.58;;;11.32;;
24034;SDS011;12242;50.952;4.678;2022-12-18T08:18:48;25.85;;;11.07;;
24034;SDS011;12242;50.952;4.678;2022-12-18T08:21:19;25.10;;;10.43;;
24034;SDS011;12242;50.952;4.678;2022-12-18T08:23:50;27.00;;;10.43;;
24034;SDS011;12242;50.952;4.678;2022-12-18T08:26:18;23.38;;;10.25;;
24034;SDS011;12242;50.952;4.678;2022-12-18T08:28:46;27.08;;;10.35;;
24034;SDS011;12242;50.952;4.678;2022-12-18T08:31:17;28.00;;;10.65;;
24034;SDS011;12242;50.952;4.678;2022-12-18T08:33:45;26.50;;;10.13;;
24034;SDS011;12242;50.952;4.678;2022-12-18T08:36:15;25.40;;;10.18;;
24034;SDS011;12242;50.952;4.678;2022-12-18T08:38:43;24.65;;;10.02;;
24034;SDS011;12242;50.952;4.678;2022-12-18T08:41:14;24.17;;;9.85;;
24034;SDS011;12242;50.952;4.678;2022-12-18T08:43:42;25.80;;;10.30;;
24034;SDS011;12242;50.952;4.678;2022-12-18T08:46:32;26.15;;;9.20;;
24034;SDS011;12242;50.952;4.678;2022-12-18T08:49:04;22.20;;;9.50;;
24034;SDS011;12242;50.952;4.678;2022-12-18T08:51:33;24.08;;;9.65;;
24034;SDS011;12242;50.952;4.678;2022-12-18T08:54:01;18.85;;;8.52;;
24034;SDS011;12242;50.952;4.678;2022-12-18T08:56:30;22.55;;;9.40;;
24034;SDS011;12242;50.952;4.678;2022-12-18T08:58:58;24.08;;;9.52;;
24034;SDS011;12242;50.952;4.678;2022-12-18T09:01:27;20.90;;;8.40;;
24034;SDS011;12242;50.952;4.678;2022-12-18T09:03:55;19.65;;;7.82;;
24034;SDS011;12242;50.952;4.678;2022-12-18T09:06:23;21.95;;;9.18;;
24034;SDS011;12242;50.952;4.678;2022-12-18T09:08:50;23.55;;;8.57;;
24034;SDS011;12242;50.952;4.678;2022-12-18T09:11:24;20.85;;;8.63;;
24034;SDS011;12242;50.952;4.678;2022-12-18T09:13:55;22.08;;;8.60;;
24034;SDS011;12242;50.952;4.678;2022-12-18T09:16:24;18.95;;;7.80;;
24034;SDS011;12242;50.952;4.678;2022-12-18T09:18:59;22.13;;;8.60;;
24034;SDS011;12242;50.952;4.678;2022-12-18T09:21:35;23.17;;;8.18;;
24034;SDS011;12242;50.952;4.678;2022-12-18T09:24:13;17.92;;;7.55;;
24034;SDS011;12242;50.952;4.678;2022-12-18T09:26:42;22.23;;;7.93;;
24034;SDS011;12242;50.952;4.678;2022-12-18T09:29:15;17.35;;;7.60;;
24034;SDS011;12242;50.952;4.678;2022-12-18T09:34:17;17.42;;;7.57;;
24034;SDS011;12242;50.952;4.678;2022-12-18T09:36:48;17.08;;;7.35;;
24034;SDS011;12242;50.952;4.678;2022-12-18T09:39:17;16.05;;;7.07;;
24034;SDS011;12242;50.952;4.678;2022-12-18T09:41:51;21.92;;;7.68;;
24034;SDS011;12242;50.952;4.678;2022-12-18T09:49:43;15.95;;;6.50;;
24034;SDS011;12242;50.952;4.678;2022-12-18T09:52:14;19.48;;;7.65;;
24034;SDS011;12242;50.952;4.678;2022-12-18T09:54:55;20.45;;;8.20;;
24034;SDS011;12242;50.952;4.678;2022-12-18T09:57:33;19.63;;;7.05;;
24034;SDS011;12242;50.952;4.678;2022-12-18T10:00:15;20.10;;;7.50;;
24034;SDS011;12242;50.952;4.678;2022-12-18T10:02:49;17.15;;;7.32;;
24034;SDS011;12242;50.952;4.678;2022-12-18T10:05:21;16.08;;;6.75;;
24034;SDS011;12242;50.952;4.678;2022-12-18T10:17:19;20.45;;;7.75;;
24034;SDS011;12242;50.952;4.678;2022-12-18T10:23:15;14.60;;;6.10;;
24034;SDS011;12242;50.952;4.678;2022-12-18T10:26:14;17.38;;;6.88;;
24034;SDS011;12242;50.952;4.678;2022-12-18T10:28:46;17.15;;;7.00;;
24034;SDS011;12242;50.952;4.678;2022-12-18T10:31:22;16.55;;;6.28;;
24034;SDS011;12242;50.952;4.678;2022-12-18T10:33:51;17.00;;;6.13;;
24034;SDS011;12242;50.952;4.678;2022-12-18T10:36:22;16.63;;;6.28;;
24034;SDS011;12242;50.952;4.678;2022-12-18T10:38:51;14.85;;;6.10;;
24034;SDS011;12242;50.952;4.678;2022-12-18T10:46:41;17.58;;;6.15;;
24034;SDS011;12242;50.952;4.678;2022-12-18T10:49:46;15.00;;;6.30;;
24034;SDS011;12242;50.952;4.678;2022-12-18T10:57:29;11.40;;;4.70;;
24034;SDS011;12242;50.952;4.678;2022-12-18T11:00:21;12.57;;;5.88;;
24034;SDS011;12242;50.952;4.678;2022-12-18T11:02:55;9.70;;;4.10;;
24034;SDS011;12242;50.952;4.678;2022-12-18T11:08:02;16.15;;;6.47;;
24034;SDS011;12242;50.952;4.678;2022-12-18T11:10:36;14.48;;;6.93;;
24034;SDS011;12242;50.952;4.678;2022-12-18T11:13:12;14.27;;;6.00;;
24034;SDS011;12242;50.952;4.678;2022-12-18T11:15:45;13.77;;;6.07;;
24034;SDS011;12242;50.952;4.678;2022-12-18T11:21:13;12.75;;;5.78;;
24034;SDS011;12242;50.952;4.678;2022-12-18T11:23:59;12.43;;;6.20;;
24034;SDS011;12242;50.952;4.678;2022-12-18T11:26:36;15.60;;;6.82;;
24034;SDS011;12242;50.952;4.678;2022-12-18T11:29:09;16.63;;;6.93;;
24034;SDS011;12242;50.952;4.678;2022-12-18T11:31:45;15.13;;;6.68;;
24034;SDS011;12242;50.952;4.678;2022-12-18T11:34:28;14.15;;;6.15;;
24034;SDS011;12242;50.952;4.678;2022-12-18T11:37:03;15.57;;;7.10;;
24034;SDS011;12242;50.952;4.678;2022-12-18T11:39:42;20.75;;;6.55;;
24034;SDS011;12242;50.952;4.678;2022-12-18T11:42:30;17.45;;;6.90;;
24034;SDS011;12242;50.952;4.678;2022-12-18T11:45:20;18.63;;;7.15;;
24034;SDS011;12242;50.952;4.678;2022-12-18T11:48:01;17.58;;;6.70;;
24034;SDS011;12242;50.952;4.678;2022-12-18T11:50:47;18.02;;;6.90;;
24034;SDS011;12242;50.952;4.678;2022-12-18T11:53:20;17.38;;;7.15;;
24034;SDS011;12242;50.952;4.678;2022-12-18T11:58:50;17.25;;;7.03;;
24034;SDS011;12242;50.952;4.678;2022-12-18T12:15:05;20.75;;;6.97;;
24034;SDS011;12242;50.952;4.678;2022-12-18T12:18:15;18.88;;;7.40;;
24034;SDS011;12242;50.952;4.678;2022-12-18T12:26:26;19.10;;;7.68;;
24034;SDS011;12242;50.952;4.678;2022-12-18T12:29:09;20.48;;;7.63;;
24034;SDS011;12242;50.952;4.678;2022-12-18T12:34:24;17.77;;;7.70;;
24034;SDS011;12242;50.952;4.678;2022-12-18T12:39:49;21.70;;;8.48;;
24034;SDS011;12242;50.952;4.678;2022-12-18T12:42:34;15.85;;;7.30;;
24034;SDS011;12242;50.952;4.678;2022-12-18T12:45:28;16.60;;;7.05;;
24034;SDS011;12242;50.952;4.678;2022-12-18T12:48:03;19.15;;;7.53;;
24034;SDS011;12242;50.952;4.678;2022-12-18T12:50:36;20.58;;;7.82;;
24034;SDS011;12242;50.952;4.678;2022-12-18T12:53:06;18.00;;;7.95;;
24034;SDS011;12242;50.952;4.678;2022-12-18T12:55:36;22.63;;;8.32;;
24034;SDS011;12242;50.952;4.678;2022-12-18T13:01:15;17.45;;;7.95;;
24034;SDS011;12242;50.952;4.678;2022-12-18T13:06:56;18.92;;;8.13;;
24034;SDS011;12242;50.952;4.678;2022-12-18T13:09:33;16.90;;;7.82;;
24034;SDS011;12242;50.952;4.678;2022-12-18T13:15:19;48.78;;;17.30;;
24034;SDS011;12242;50.952;4.678;2022-12-18T13:17:51;46.92;;;18.05;;
24034;SDS011;12242;50.952;4.678;2022-12-18T13:23:46;24.77;;;10.27;;
24034;SDS011;12242;50.952;4.678;2022-12-18T13:28:55;23.67;;;9.50;;
24034;SDS011;12242;50.952;4.678;2022-12-18T13:34:16;22.05;;;8.50;;
24034;SDS011;12242;50.952;4.678;2022-12-18T13:36:54;21.42;;;9.02;;
24034;SDS011;12242;50.952;4.678;2022-12-18T13:39:42;20.83;;;9.40;;
24034;SDS011;12242;50.952;4.678;2022-12-18T13:44:57;35.97;;;13.50;;
24034;SDS011;12242;50.952;4.678;2022-12-18T13:47:31;31.27;;;12.93;;
24034;SDS011;12242;50.952;4.678;2022-12-18T13:50:09;23.38;;;11.13;;
24034;SDS011;12242;50.952;4.678;2022-12-18T13:52:50;24.73;;;10.73;;
24034;SDS011;12242;50.952;4.678;2022-12-18T13:55:21;23.20;;;9.93;;
24034;SDS011;12242;50.952;4.678;2022-12-18T13:57:49;22.98;;;10.07;;
24034;SDS011;12242;50.952;4.678;2022-12-18T14:00:30;24.55;;;10.57;;
24034;SDS011;12242;50.952;4.678;2022-12-18T14:02:58;24.95;;;10.25;;
24034;SDS011;12242;50.952;4.678;2022-12-18T14:05:35;25.20;;;10.07;;
24034;SDS011;12242;50.952;4.678;2022-12-18T14:08:10;19.98;;;9.43;;
24034;SDS011;12242;50.952;4.678;2022-12-18T14:10:45;19.17;;;8.13;;
24034;SDS011;12242;50.952;4.678;2022-12-18T14:13:32;25.17;;;12.33;;
24034;SDS011;12242;50.952;4.678;2022-12-18T14:16:06;26.70;;;13.30;;
24034;SDS011;12242;50.952;4.678;2022-12-18T14:21:29;20.80;;;9.77;;
24034;SDS011;12242;50.952;4.678;2022-12-18T14:26:40;22.90;;;10.55;;
24034;SDS011;12242;50.952;4.678;2022-12-18T14:32:03;27.95;;;11.07;;
24034;SDS011;12242;50.952;4.678;2022-12-18T14:34:37;29.55;;;13.48;;
24034;SDS011;12242;50.952;4.678;2022-12-18T14:37:09;27.83;;;9.88;;
24034;SDS011;12242;50.952;4.678;2022-12-18T14:39:38;19.60;;;9.30;;
24034;SDS011;12242;50.952;4.678;2022-12-18T14:42:10;19.45;;;9.18;;
24034;SDS011;12242;50.952;4.678;2022-12-18T14:44:38;28.30;;;10.35;;
24034;SDS011;12242;50.952;4.678;2022-12-18T14:47:25;33.22;;;13.77;;
24034;SDS011;12242;50.952;4.678;2022-12-18T14:49:59;37.30;;;13.63;;
24034;SDS011;12242;50.952;4.678;2022-12-18T14:52:27;24.77;;;11.35;;
24034;SDS011;12242;50.952;4.678;2022-12-18T14:54:58;24.92;;;10.20;;
24034;SDS011;12242;50.952;4.678;2022-12-18T14:57:35;28.33;;;10.25;;
24034;SDS011;12242;50.952;4.678;2022-12-18T15:00:19;20.42;;;9.27;;
24034;SDS011;12242;50.952;4.678;2022-12-18T15:02:52;22.42;;;9.55;;
24034;SDS011;12242;50.952;4.678;2022-12-18T15:05:25;23.15;;;9.68;;
24034;SDS011;12242;50.952;4.678;2022-12-18T15:07:58;34.95;;;15.07;;
24034;SDS011;12242;50.952;4.678;2022-12-18T15:10:30;25.95;;;10.88;;
24034;SDS011;12242;50.952;4.678;2022-12-18T15:18:04;26.25;;;10.82;;
24034;SDS011;12242;50.952;4.678;2022-12-18T15:23:21;24.38;;;9.82;;
24034;SDS011;12242;50.952;4.678;2022-12-18T15:26:23;27.15;;;10.25;;
24034;SDS011;12242;50.952;4.678;2022-12-18T15:31:34;23.88;;;10.32;;
24034;SDS011;12242;50.952;4.678;2022-12-18T15:36:35;20.55;;;9.20;;
24034;SDS011;12242;50.952;4.678;2022-12-18T15:39:05;22.33;;;9.27;;
24034;SDS011;12242;50.952;4.678;2022-12-18T15:41:33;27.77;;;10.10;;
24034;SDS011;12242;50.952;4.678;2022-12-18T15:44:03;29.65;;;9.98;;
24034;SDS011;12242;50.952;4.678;2022-12-18T15:46:50;24.98;;;9.77;;
24034;SDS011;12242;50.952;4.678;2022-12-18T15:49:17;22.85;;;9.77;;
24034;SDS011;12242;50.952;4.678;2022-12-18T15:51:44;26.05;;;10.38;;
24034;SDS011;12242;50.952;4.678;2022-12-18T15:54:14;24.42;;;9.13;;
24034;SDS011;12242;50.952;4.678;2022-12-18T15:57:01;24.98;;;10.27;;
24034;SDS011;12242;50.952;4.678;2022-12-18T15:59:50;26.33;;;9.98;;
24034;SDS011;12242;50.952;4.678;2022-12-18T16:02:22;24.05;;;9.93;;
24034;SDS011;12242;50.952;4.678;2022-12-18T16:04:52;27.85;;;11.60;;
24034;SDS011;12242;50.952;4.678;2022-12-18T16:07:20;21.05;;;9.43;;
24034;SDS011;12242;50.952;4.678;2022-12-18T16:09:56;22.67;;;9.27;;
24034;SDS011;12242;50.952;4.678;2022-12-18T16:12:25;28.17;;;11.40;;
24034;SDS011;12242;50.952;4.678;2022-12-18T16:14:53;26.98;;;10.07;;
24034;SDS011;12242;50.952;4.678;2022-12-18T16:17:25;23.75;;;9.27;;
24034;SDS011;12242;50.952;4.678;2022-12-18T16:19:55;25.77;;;10.10;;
24034;SDS011;12242;50.952;4.678;2022-12-18T16:22:29;24.20;;;10.07;;
24034;SDS011;12242;50.952;4.678;2022-12-18T16:24:59;26.13;;;9.80;;
24034;SDS011;12242;50.952;4.678;2022-12-18T16:27:26;25.95;;;10.00;;
24034;SDS011;12242;50.952;4.678;2022-12-18T16:29:53;29.42;;;10.43;;
24034;SDS011;12242;50.952;4.678;2022-12-18T16:32:23;25.85;;;10.45;;
24034;SDS011;12242;50.952;4.678;2022-12-18T16:34:50;21.00;;;9.25;;
24034;SDS011;12242;50.952;4.678;2022-12-18T16:37:17;21.95;;;8.98;;
24034;SDS011;12242;50.952;4.678;2022-12-18T16:39:45;23.38;;;9.15;;
24034;SDS011;12242;50.952;4.678;2022-12-18T16:42:14;26.35;;;9.82;;
24034;SDS011;12242;50.952;4.678;2022-12-18T16:44:48;25.80;;;10.77;;
24034;SDS011;12242;50.952;4.678;2022-12-18T16:47:16;23.88;;;9.45;;
24034;SDS011;12242;50.952;4.678;2022-12-18T16:49:49;23.25;;;9.88;;
24034;SDS011;12242;50.952;4.678;2022-12-18T16:52:19;28.75;;;10.95;;
24034;SDS011;12242;50.952;4.678;2022-12-18T16:54:51;27.17;;;9.50;;
24034;SDS011;12242;50.952;4.678;2022-12-18T16:57:19;42.60;;;16.85;;
24034;SDS011;12242;50.952;4.678;2022-12-18T16:59:51;22.53;;;8.53;;
24034;SDS011;12242;50.952;4.678;2022-12-18T17:02:27;27.17;;;11.05;;
24034;SDS011;12242;50.952;4.678;2022-12-18T17:04:55;25.85;;;10.18;;